Погода Бунятинона 2 недели

Тверская область, Россия

21 мая-03 июня
  • 21мая
    Сегодня
    +6°
    +23°
    Практически безоблачно
    ВремяПогодаТемператураВлажностьДавлениеВетер, м/сВероятность осадков
    00:00Ясно и безоблачно+12°C83 %748 мм1.9 м/с2 %
    03:00Ясно и безоблачно+9°C92 %748 мм1.9 м/с2 %
    06:00Практически безоблачно+11°C87 %749 мм2.5 м/с2 %
    09:00Практически безоблачно+18°C76 %750 мм1.2 м/с3 %
    12:00Практически безоблачно+22°C60 %750 мм2.9 м/с2 %
    15:00Практически безоблачно+23°C47 %750 мм2.7 м/с3 %
    18:00Ясно и безоблачно+21°C42 %750 мм3.1 м/с4 %
    21:00Ясно и безоблачно+16°C52 %750 мм2.7 м/с2 %
  • 22мая
    Среда
    +6°
    +21°
    Ясно и безоблачно
    ВремяПогодаТемператураВлажностьДавлениеВетер, м/сВероятность осадков
    00:00Ясно и безоблачно+11°C54 %751 мм3.4 м/с2 %
    03:00Ясно и безоблачно+8°C66 %752 мм2.4 м/с2 %
    06:00Ясно и безоблачно+8°C73 %753 мм2.2 м/с2 %
    09:00Ясно и безоблачно+16°C53 %754 мм2.6 м/с2 %
    12:00Ясно и безоблачно+20°C40 %754 мм3.1 м/с2 %
    15:00Ясно и безоблачно+21°C37 %753 мм3.0 м/с2 %
    18:00Ясно и безоблачно+20°C37 %753 мм3.3 м/с2 %
    21:00Ясно и безоблачно+15°C48 %754 мм3.2 м/с2 %
  • 23мая
    Четверг
    +5°
    +20°
    Практически безоблачно
    ВремяПогодаТемператураВлажностьДавлениеВетер, м/сВероятность осадков
    00:00Ясно и безоблачно+10°C54 %755 мм2.9 м/с2 %
    03:00Ясно и безоблачно+8°C58 %756 мм2.4 м/с2 %
    06:00Ясно и безоблачно+8°C66 %757 мм2.4 м/с2 %
    09:00Ясно и безоблачно+15°C51 %758 мм2.2 м/с2 %
    12:00Небольшая облачность+19°C38 %758 мм3.7 м/с2 %
    15:00Практически безоблачно+19°C37 %758 мм2.9 м/с2 %
    18:00Ясно и безоблачно+19°C38 %757 мм2.8 м/с2 %
    21:00Ясно и безоблачно+14°C53 %758 мм2.5 м/с2 %
  • 24мая
    Пятница
    +8°
    +21°
    Ясно и безоблачно
    ВремяПогодаТемператураВлажностьДавлениеВетер, м/сВероятность осадков
    00:00Ясно и безоблачно+9°C57 %759 мм2.6 м/с2 %
    03:00Ясно и безоблачно+6°C66 %759 мм2.1 м/с2 %
    06:00Ясно и безоблачно+7°C69 %760 мм1.7 м/с2 %
    09:00Практически безоблачно+16°C44 %761 мм2.0 м/с2 %
    12:00Ясно и безоблачно+19°C40 %761 мм2.9 м/с2 %
    15:00Ясно и безоблачно+21°C38 %760 мм2.9 м/с2 %
    18:00Ясно и безоблачно+21°C39 %759 мм2.7 м/с2 %
    21:00Ясно и безоблачно+15°C55 %759 мм2.4 м/с2 %
  • 25мая
    Суббота
    +10°
    +24°
    Небольшая облачность
    ВремяПогодаТемператураВлажностьДавлениеВетер, м/сВероятность осадков
    00:00Ясно и безоблачно+11°C66 %759 мм2.7 м/с2 %
    03:00Ясно и безоблачно+9°C69 %759 мм2.5 м/с2 %
    06:00Ясно и безоблачно+9°C75 %759 мм2.6 м/с2 %
    09:00Ясно и безоблачно+17°C57 %759 мм2.7 м/с2 %
    12:00Небольшая облачность+22°C41 %758 мм3.4 м/с2 %
    15:00Небольшая облачность+24°C37 %757 мм3.3 м/с2 %
    18:00Ясно и безоблачно+24°C39 %756 мм2.9 м/с2 %
    21:00Ясно и безоблачно+18°C57 %755 мм2.5 м/с2 %
Мы используем cookies
Соглашаюсь